createdAt,value
2019-01-25T00:02:42.773Z,12.07
2019-01-25T00:12:48.364Z,11.83
2019-01-25T00:22:53.858Z,11.20
2019-01-25T00:32:59.230Z,11.23
2019-01-25T00:43:04.572Z,10.77
2019-01-25T00:53:09.939Z,9.73
2019-01-25T01:03:17.611Z,9.67
2019-01-25T01:13:23.034Z,9.73
2019-01-25T01:23:28.492Z,10.00
2019-01-25T01:33:33.888Z,9.80
2019-01-25T01:43:40.751Z,9.67
2019-01-25T01:53:46.451Z,8.97
2019-01-25T02:03:51.982Z,8.97
2019-01-25T02:13:57.412Z,9.10
2019-01-25T02:24:02.826Z,8.90
2019-01-25T02:34:08.220Z,7.90
2019-01-25T02:44:15.477Z,7.90
2019-01-25T02:54:22.257Z,7.87
2019-01-25T03:04:27.703Z,7.40
2019-01-25T03:14:33.158Z,7.80
2019-01-25T03:24:38.649Z,7.90
2019-01-25T03:34:45.368Z,7.00
2019-01-25T03:44:50.854Z,7.07
2019-01-25T03:54:58.380Z,6.77
2019-01-25T04:05:03.818Z,6.77
2019-01-25T04:15:12.423Z,6.77
2019-01-25T04:25:21.003Z,6.57
2019-01-25T04:35:26.467Z,6.73
2019-01-25T04:45:32.059Z,6.73
2019-01-25T04:55:37.456Z,6.57
2019-01-25T05:05:42.840Z,5.90
2019-01-25T05:15:48.253Z,5.77
2019-01-25T05:25:53.609Z,6.20
2019-01-25T05:35:59.092Z,5.73
2019-01-25T05:46:04.541Z,6.13
2019-01-25T05:56:09.895Z,6.13
2019-01-25T06:06:15.327Z,6.10
2019-01-25T06:16:23.236Z,6.03
2019-01-25T06:26:28.731Z,6.20
2019-01-25T06:36:34.398Z,5.70
2019-01-25T06:46:40.117Z,6.00
2019-01-25T06:56:46.049Z,7.03
2019-01-25T07:06:51.557Z,7.00
2019-01-25T07:16:57.119Z,6.57
2019-01-25T07:27:02.566Z,6.40
2019-01-25T07:37:08.107Z,6.50
2019-01-25T07:47:14.865Z,6.40
2019-01-25T07:57:20.551Z,6.03
2019-01-25T08:07:26.816Z,6.53
2019-01-25T08:17:32.380Z,6.43
2019-01-25T08:27:38.319Z,5.77
2019-01-25T08:37:44.323Z,6.50
2019-01-25T08:47:50.232Z,7.23
2019-01-25T08:57:56.971Z,7.13
2019-01-25T09:08:02.338Z,10.23
2019-01-25T09:18:08.463Z,8.57
2019-01-25T09:28:14.069Z,8.27
2019-01-25T09:38:20.891Z,8.00
2019-01-25T09:48:26.367Z,7.80
2019-01-25T09:58:31.756Z,10.60
2019-01-25T10:08:37.822Z,8.93
2019-01-25T10:18:43.146Z,9.03
2019-01-25T10:28:48.860Z,9.00
2019-01-25T10:38:54.270Z,12.47
2019-01-25T10:49:00.085Z,11.17
2019-01-25T10:59:05.969Z,10.40
2019-01-25T11:09:11.593Z,9.30
2019-01-25T11:19:17.375Z,9.67
2019-01-25T12:41:36.465Z,9.53
2019-01-25T12:51:53.368Z,8.40
2019-01-25T13:01:59.376Z,8.27
2019-01-25T13:12:05.697Z,9.30
2019-01-25T13:22:11.033Z,16.33
2019-01-25T13:32:16.348Z,15.43
2019-01-25T13:42:21.943Z,14.60
2019-01-25T13:52:27.297Z,13.73
2019-01-25T14:02:34.175Z,12.97
2019-01-25T14:12:39.704Z,12.70
2019-01-25T14:22:45.238Z,13.00
2019-01-25T14:32:50.671Z,13.20
2019-01-25T14:42:56.298Z,12.70
2019-01-25T14:53:01.748Z,11.23
2019-01-25T15:03:09.010Z,10.87
2019-01-25T15:13:14.423Z,10.30
2019-01-25T15:23:19.831Z,9.97
2019-01-25T15:33:25.326Z,14.27
2019-01-25T15:43:30.815Z,10.70
2019-01-25T15:53:37.019Z,8.70
2019-01-25T16:03:42.453Z,9.20
2019-01-25T16:13:49.792Z,12.63
2019-01-25T16:23:57.761Z,9.33
2019-01-25T16:34:03.614Z,9.13
2019-01-25T16:44:09.233Z,8.30
2019-01-25T16:54:15.008Z,7.80
2019-01-25T17:04:20.511Z,8.60
2019-01-25T17:14:33.312Z,8.10
2019-01-25T17:24:38.425Z,7.80
2019-01-25T17:34:44.657Z,19.97
2019-01-25T17:44:50.550Z,18.63
2019-01-25T17:54:56.227Z,17.37
2019-01-25T18:05:03.040Z,17.00
2019-01-25T18:15:09.733Z,15.87
2019-01-25T18:25:20.142Z,15.37
2019-01-25T18:35:26.758Z,15.03
2019-01-25T18:45:33.421Z,14.03
2019-01-25T18:55:39.410Z,15.10
2019-01-25T19:05:47.972Z,13.80
2019-01-25T19:15:53.381Z,13.60
2019-01-25T19:25:59.876Z,17.83
2019-01-25T19:36:05.503Z,13.33
2019-01-25T19:46:10.950Z,12.50
2019-01-25T19:56:16.350Z,12.67
2019-01-25T20:06:22.047Z,12.27
2019-01-25T20:16:27.407Z,12.33
2019-01-25T20:26:33.010Z,12.27
2019-01-25T20:36:38.470Z,11.00
2019-01-25T20:46:43.865Z,11.30
2019-01-25T20:56:49.397Z,11.10
2019-01-25T21:06:55.167Z,11.00
2019-01-25T21:17:01.420Z,10.47
2019-01-25T21:27:08.197Z,10.20
2019-01-25T21:37:13.704Z,9.47
2019-01-25T21:47:19.267Z,9.87
2019-01-25T21:57:24.687Z,9.43
2019-01-25T22:07:31.108Z,9.37
2019-01-25T22:17:36.957Z,8.97
2019-01-25T22:27:42.480Z,8.67
2019-01-25T22:37:47.916Z,8.80
2019-01-25T22:47:53.305Z,8.80
2019-01-25T22:57:58.989Z,8.33
2019-01-25T23:08:04.464Z,8.23
2019-01-25T23:18:09.997Z,8.47
2019-01-25T23:28:15.401Z,8.00
2019-01-25T23:38:21.291Z,8.00
2019-01-25T23:48:26.733Z,8.10
2019-01-25T23:58:32.255Z,7.70
